Terminal Aerodrome Forecast
Issued by NWS

Home | Current Version | Previous Version | Text Only | Print | Product List | Glossary On
Versions: 1 2 3 4 5 6 7 8 9 10 11 12 13 14 15 16 17 18
000
FTUS46 KEKA 270037 AAA
TAFCEC
TAF AMD
KCEC 270037Z 2701/2724 32003KT 5SM -SHRA BR SCT005 OVC013
      TEMPO 2701/2705 1 1/2SM -RA OVC005
     FM270500 20006KT 1 1/2SM -RA BKN005 OVC011
     FM271400 22007KT P6SM -SHRA SCT004 OVC015
     FM271900 29009KT P6SM -SHRA BKN025=

USA.gov is the U.S. government's official web portal to all federal, state and local government web resources and services.